createdAt,value
2018-06-04T00:00:26.940Z,77.90
2018-06-04T00:02:55.128Z,77.60
2018-06-04T00:05:23.303Z,77.50
2018-06-04T00:07:51.508Z,77.70
2018-06-04T00:10:19.686Z,78.10
2018-06-04T00:12:48.659Z,77.80
2018-06-04T00:15:17.931Z,78.10
2018-06-04T00:17:46.144Z,78.30
2018-06-04T00:20:14.335Z,78.30
2018-06-04T00:22:42.559Z,78.10
2018-06-04T00:25:11.341Z,78.10
2018-06-04T00:27:39.554Z,78.40
2018-06-04T00:30:07.760Z,78.40
2018-06-04T00:32:35.919Z,78.20
2018-06-04T00:35:04.109Z,78.10
2018-06-04T00:37:32.259Z,78.90
2018-06-04T00:40:00.459Z,78.60
2018-06-04T00:42:28.626Z,78.60
2018-06-04T00:44:56.794Z,78.50
2018-06-04T00:47:24.966Z,78.40
2018-06-04T00:49:53.176Z,78.70
2018-06-04T00:52:21.329Z,79.10
2018-06-04T00:54:49.509Z,78.60
2018-06-04T00:57:17.665Z,79.10
2018-06-04T00:59:45.850Z,79.20
2018-06-04T01:02:14.024Z,79.90
2018-06-04T01:04:42.248Z,79.90
2018-06-04T01:07:10.400Z,79.30
2018-06-04T01:09:39.185Z,79.50
2018-06-04T01:12:07.347Z,79.10
2018-06-04T01:14:35.598Z,79.60
2018-06-04T01:17:03.758Z,79.50
2018-06-04T01:19:31.931Z,79.50
2018-06-04T01:22:00.117Z,80.10
2018-06-04T01:24:28.270Z,80.50
2018-06-04T01:26:56.438Z,80.80
2018-06-04T01:29:24.617Z,81.10
2018-06-04T01:31:52.794Z,81.00
2018-06-04T01:34:20.962Z,81.30
2018-06-04T01:36:49.110Z,81.10
2018-06-04T01:39:17.357Z,79.80
2018-06-04T01:41:45.525Z,80.00
2018-06-04T01:44:13.703Z,80.20
2018-06-04T01:46:41.886Z,80.80
2018-06-04T01:49:10.073Z,80.60
2018-06-04T01:51:38.237Z,80.70
2018-06-04T01:54:06.402Z,81.10
2018-06-04T01:56:34.572Z,81.10
2018-06-04T01:59:02.741Z,81.00
2018-06-04T02:01:30.916Z,80.90
2018-06-04T02:03:59.077Z,81.10
2018-06-04T02:06:27.281Z,81.70
2018-06-04T02:08:55.468Z,83.10
2018-06-04T02:11:23.655Z,81.80
2018-06-04T02:13:51.840Z,81.00
2018-06-04T02:16:20.010Z,80.90
2018-06-04T02:18:48.162Z,80.80
2018-06-04T02:21:16.345Z,80.60
2018-06-04T02:23:44.625Z,80.30
2018-06-04T02:26:12.804Z,81.10
2018-06-04T02:28:40.981Z,81.60
2018-06-04T02:31:09.147Z,81.30
2018-06-04T02:33:37.305Z,81.70
2018-06-04T02:36:05.619Z,81.30
2018-06-04T02:38:33.857Z,81.10
2018-06-04T02:41:02.029Z,80.90
2018-06-04T02:43:30.207Z,81.70
2018-06-04T02:45:58.393Z,81.80
2018-06-04T02:48:26.583Z,81.70
2018-06-04T02:50:54.794Z,82.20
2018-06-04T02:53:22.954Z,82.40
2018-06-04T02:55:51.142Z,82.50
2018-06-04T02:58:19.339Z,81.80
2018-06-04T03:00:47.515Z,82.10
2018-06-04T03:05:43.604Z,81.80
2018-06-04T03:08:11.781Z,81.90
2018-06-04T03:10:39.929Z,82.30
2018-06-04T03:13:08.118Z,82.70
2018-06-04T03:15:37.310Z,82.50
2018-06-04T03:18:05.487Z,82.50
2018-06-04T03:20:33.651Z,82.50
2018-06-04T03:23:01.819Z,82.80
2018-06-04T03:25:29.967Z,82.40
2018-06-04T03:27:58.805Z,82.70
2018-06-04T03:30:27.060Z,81.80
2018-06-04T03:32:55.279Z,81.90
2018-06-04T03:35:23.442Z,81.30
2018-06-04T03:37:51.671Z,81.90
2018-06-04T03:40:19.842Z,81.90
2018-06-04T03:42:48.002Z,82.20
2018-06-04T03:45:16.215Z,81.90
2018-06-04T03:47:44.379Z,81.50
2018-06-04T03:50:12.566Z,82.20
2018-06-04T03:52:40.744Z,81.50
2018-06-04T03:55:08.898Z,82.30
2018-06-04T03:57:37.147Z,82.70
2018-06-04T04:00:05.351Z,83.20
2018-06-04T04:02:33.519Z,83.40
2018-06-04T04:05:01.718Z,82.40
2018-06-04T04:07:29.871Z,82.80
2018-06-04T04:09:58.063Z,82.00
2018-06-04T04:12:26.242Z,81.60
2018-06-04T04:14:59.512Z,81.70
2018-06-04T04:19:55.606Z,81.90
2018-06-04T04:22:23.766Z,82.10
2018-06-04T04:24:51.990Z,82.30
2018-06-04T04:27:26.617Z,82.50
2018-06-04T04:29:54.798Z,82.50
2018-06-04T04:32:22.987Z,82.20
2018-06-04T04:34:51.158Z,82.20
2018-06-04T04:37:19.311Z,82.20
2018-06-04T04:39:47.498Z,82.50
2018-06-04T04:42:15.763Z,82.70
2018-06-04T04:44:43.902Z,82.60
2018-06-04T04:47:12.075Z,82.90
2018-06-04T04:49:40.231Z,82.40
2018-06-04T04:52:08.398Z,82.40
2018-06-04T04:54:36.606Z,82.20
2018-06-04T04:57:04.766Z,82.70
2018-06-04T04:59:32.919Z,82.50
2018-06-04T05:02:01.063Z,82.70
2018-06-04T05:04:29.295Z,82.60
2018-06-04T05:06:57.475Z,82.60
2018-06-04T05:09:25.626Z,82.20
2018-06-04T05:11:53.787Z,81.90
2018-06-04T05:14:21.990Z,82.00
2018-06-04T05:16:50.158Z,82.00
2018-06-04T05:19:18.374Z,81.90
2018-06-04T05:21:46.534Z,81.70
2018-06-04T05:24:14.722Z,81.80
2018-06-04T05:26:42.894Z,81.80
2018-06-04T05:29:11.057Z,82.20
2018-06-04T05:31:43.029Z,82.00
2018-06-04T05:34:11.155Z,81.80
2018-06-04T05:36:39.559Z,81.50
2018-06-04T05:39:09.202Z,81.70
2018-06-04T05:41:37.379Z,81.90
2018-06-04T05:44:05.565Z,81.90
2018-06-04T05:46:33.732Z,82.20
2018-06-04T05:49:01.922Z,81.50
2018-06-04T05:51:32.269Z,82.00
2018-06-04T05:54:00.493Z,81.60
2018-06-04T05:56:28.671Z,81.50
2018-06-04T05:58:56.846Z,80.50
2018-06-04T06:01:25.055Z,79.10
2018-06-04T06:03:53.230Z,78.60
2018-06-04T06:06:21.406Z,79.20
2018-06-04T06:08:49.570Z,78.80
2018-06-04T06:11:17.825Z,79.00
2018-06-04T06:13:46.069Z,79.30
2018-06-04T06:16:14.254Z,79.10
2018-06-04T06:18:42.454Z,79.10
2018-06-04T06:21:10.638Z,79.50
2018-06-04T06:23:38.821Z,78.60
2018-06-04T06:26:07.001Z,78.70
2018-06-04T06:28:35.238Z,79.10
2018-06-04T06:31:03.409Z,78.40
2018-06-04T06:33:31.659Z,77.80
2018-06-04T06:36:01.306Z,79.30
2018-06-04T06:38:29.550Z,77.90
2018-06-04T06:40:57.759Z,78.30
2018-06-04T06:43:25.957Z,78.70
2018-06-04T06:45:54.238Z,78.30
2018-06-04T06:48:22.454Z,78.40
2018-06-04T06:50:50.641Z,76.20
2018-06-04T06:53:18.831Z,75.10
2018-06-04T06:55:47.055Z,75.80
2018-06-04T06:58:15.248Z,75.30
2018-06-04T07:00:43.423Z,76.00
2018-06-04T07:03:11.603Z,74.20
2018-06-04T07:05:39.790Z,74.30
2018-06-04T07:08:07.995Z,74.10
2018-06-04T07:10:36.184Z,73.80
2018-06-04T07:13:04.439Z,73.40
2018-06-04T07:15:32.678Z,72.70
2018-06-04T07:18:00.968Z,72.10
2018-06-04T07:20:29.184Z,71.00
2018-06-04T07:22:57.374Z,71.30
2018-06-04T07:25:25.562Z,71.80
2018-06-04T07:27:53.731Z,71.70
2018-06-04T07:30:22.526Z,69.90
2018-06-04T07:32:50.722Z,68.20
2018-06-04T07:35:18.914Z,69.60
2018-06-04T07:37:47.120Z,69.20
2018-06-04T07:40:15.293Z,68.40
2018-06-04T07:42:43.478Z,68.00
2018-06-04T07:45:11.686Z,68.20
2018-06-04T07:47:39.882Z,68.20
2018-06-04T07:50:08.308Z,68.10
2018-06-04T07:52:36.481Z,68.90
2018-06-04T07:55:04.680Z,67.80
2018-06-04T07:57:32.866Z,66.90
2018-06-04T08:00:01.130Z,66.70
2018-06-04T08:02:29.411Z,65.60
2018-06-04T08:04:57.569Z,64.30
2018-06-04T08:07:25.738Z,64.20
2018-06-04T08:09:53.932Z,65.10
2018-06-04T08:12:22.158Z,64.60
2018-06-04T08:14:50.316Z,63.60
2018-06-04T08:17:18.558Z,63.30
2018-06-04T08:19:46.731Z,62.50
2018-06-04T08:22:15.041Z,62.30
2018-06-04T08:24:43.218Z,62.20
2018-06-04T08:27:11.666Z,61.90
2018-06-04T08:29:39.822Z,60.60
2018-06-04T08:32:08.435Z,60.50
2018-06-04T08:34:37.155Z,60.20
2018-06-04T08:37:05.374Z,61.80
2018-06-04T08:39:33.552Z,61.20
2018-06-04T08:42:02.323Z,62.60
2018-06-04T08:44:30.549Z,61.80
2018-06-04T08:46:59.000Z,61.60
2018-06-04T08:49:27.211Z,60.30
2018-06-04T08:51:55.411Z,60.20
2018-06-04T08:54:23.620Z,60.80
2018-06-04T08:56:51.845Z,63.00
2018-06-04T08:59:20.066Z,61.40
2018-06-04T09:01:48.295Z,61.20
2018-06-04T09:04:16.530Z,61.30
2018-06-04T09:06:44.742Z,61.10
2018-06-04T09:09:14.043Z,60.10
2018-06-04T09:11:42.253Z,58.70
2018-06-04T09:14:10.438Z,58.90
2018-06-04T09:16:39.391Z,58.60
2018-06-04T09:19:08.657Z,60.40
2018-06-04T09:21:38.927Z,59.50
2018-06-04T09:24:09.408Z,57.40
2018-06-04T09:26:37.671Z,58.00
2018-06-04T09:29:05.837Z,57.30
2018-06-04T09:31:34.167Z,57.80
2018-06-04T09:34:02.532Z,57.30
2018-06-04T09:36:30.763Z,56.60
2018-06-04T09:38:59.190Z,57.00
2018-06-04T09:41:27.375Z,57.20
2018-06-04T09:43:56.950Z,56.90
2018-06-04T09:46:25.273Z,56.80
2018-06-04T09:48:53.430Z,58.30
2018-06-04T09:51:21.720Z,58.20
2018-06-04T09:53:49.978Z,57.90
2018-06-04T09:56:18.217Z,57.50
2018-06-04T09:58:46.411Z,57.50
2018-06-04T10:01:15.619Z,57.50
2018-06-04T10:03:43.814Z,56.70
2018-06-04T10:06:12.082Z,58.00
2018-06-04T10:08:40.269Z,58.00
2018-06-04T10:11:08.511Z,57.40
2018-06-04T10:13:38.507Z,55.50
2018-06-04T10:18:34.699Z,55.80
2018-06-04T10:21:02.953Z,56.10
2018-06-04T10:23:31.330Z,57.10
2018-06-04T10:25:59.521Z,58.60
2018-06-04T10:28:27.744Z,58.40
2018-06-04T10:30:56.967Z,57.10
2018-06-04T10:33:26.114Z,56.50
2018-06-04T10:35:54.404Z,55.90
2018-06-04T10:38:23.726Z,55.90
2018-06-04T10:40:51.907Z,55.50
2018-06-04T10:43:20.070Z,54.90
2018-06-04T10:45:48.238Z,54.20
2018-06-04T10:48:16.402Z,54.70
2018-06-04T10:50:44.585Z,55.50
2018-06-04T10:53:12.865Z,55.00
2018-06-04T10:55:41.030Z,54.70
2018-06-04T10:58:10.055Z,53.60
2018-06-04T11:00:38.264Z,53.70
2018-06-04T11:03:09.838Z,53.60
2018-06-04T11:05:38.039Z,52.80
2018-06-04T11:08:06.290Z,53.10
2018-06-04T11:10:35.969Z,54.30
2018-06-04T11:13:06.234Z,54.10
2018-06-04T11:15:34.534Z,55.20
2018-06-04T11:18:02.722Z,55.60
2018-06-04T11:20:31.324Z,55.20
2018-06-04T11:22:59.510Z,55.20
2018-06-04T11:25:27.896Z,54.20
2018-06-04T11:27:57.584Z,54.10
2018-06-04T11:30:25.991Z,55.30
2018-06-04T11:32:54.519Z,54.00
2018-06-04T11:35:23.719Z,52.80
2018-06-04T11:37:51.971Z,52.70
2018-06-04T11:40:20.174Z,52.10
2018-06-04T11:42:48.664Z,52.00
2018-06-04T11:45:16.833Z,52.80
2018-06-04T11:47:47.389Z,51.00
2018-06-04T11:50:17.140Z,48.40
2018-06-04T11:52:45.390Z,49.90
2018-06-04T11:55:13.576Z,50.40
2018-06-04T11:57:43.032Z,50.40
2018-06-04T12:00:11.230Z,47.50
2018-06-04T12:02:39.391Z,48.40
2018-06-04T12:05:07.641Z,49.30
2018-06-04T12:07:35.894Z,49.30
2018-06-04T12:10:04.136Z,49.80
2018-06-04T12:12:32.314Z,50.40
2018-06-04T12:15:00.519Z,50.50
2018-06-04T13:39:26.572Z,51.20
2018-06-04T13:41:54.726Z,50.50
2018-06-04T13:44:22.916Z,50.40
2018-06-04T13:46:51.107Z,50.40
2018-06-04T13:49:25.198Z,50.20
2018-06-04T13:51:53.383Z,50.90
2018-06-04T13:54:21.577Z,53.20
2018-06-04T13:56:49.774Z,53.30
2018-06-04T13:59:17.977Z,54.50
2018-06-04T14:01:46.162Z,54.80
2018-06-04T14:06:42.434Z,54.70
2018-06-04T14:09:10.710Z,55.00
2018-06-04T14:11:38.894Z,54.70
2018-06-04T14:14:07.064Z,54.00
2018-06-04T14:16:35.258Z,53.80
2018-06-04T14:19:03.437Z,53.50
2018-06-04T14:21:31.683Z,54.10
2018-06-04T14:23:59.861Z,53.80
2018-06-04T14:26:28.045Z,53.80
2018-06-04T14:28:56.198Z,54.00
2018-06-04T14:31:24.366Z,53.20
2018-06-04T14:33:52.553Z,52.50
2018-06-04T14:36:20.697Z,53.40
2018-06-04T14:38:48.882Z,53.50
2018-06-04T14:41:17.236Z,53.20
2018-06-04T14:43:45.415Z,53.20
2018-06-04T14:46:13.591Z,53.20
2018-06-04T14:48:41.766Z,53.40
2018-06-04T14:51:09.946Z,54.20
2018-06-04T14:53:38.118Z,54.10
2018-06-04T14:56:06.366Z,54.20
2018-06-04T14:58:34.558Z,54.20
2018-06-04T15:01:02.773Z,54.90
2018-06-04T15:03:30.933Z,54.40
2018-06-04T15:08:27.886Z,54.50
2018-06-04T15:10:56.082Z,54.00
2018-06-04T15:13:24.266Z,54.40
2018-06-04T15:15:52.430Z,53.70
2018-06-04T15:18:20.613Z,54.70
2018-06-04T15:20:48.798Z,54.10
2018-06-04T15:23:16.999Z,53.70
2018-06-04T15:25:45.230Z,54.70
2018-06-04T15:28:14.234Z,53.80
2018-06-04T15:30:42.499Z,53.20
2018-06-04T15:33:10.722Z,53.60
2018-06-04T15:35:39.009Z,53.50
2018-06-04T15:38:07.960Z,53.80
2018-06-04T15:40:36.155Z,53.60
2018-06-04T15:43:04.485Z,54.60
2018-06-04T15:48:02.708Z,54.30
2018-06-04T15:50:30.898Z,54.10
2018-06-04T15:52:59.105Z,54.30
2018-06-04T15:55:27.282Z,55.00
2018-06-04T15:57:55.493Z,54.40
2018-06-04T16:00:23.697Z,54.80
2018-06-04T16:02:52.009Z,54.50
2018-06-04T16:05:20.168Z,54.30
2018-06-04T16:07:48.378Z,54.40
2018-06-04T16:10:17.060Z,54.10
2018-06-04T16:15:35.980Z,54.10
2018-06-04T16:18:08.252Z,53.50
2018-06-04T16:20:36.481Z,54.00
2018-06-04T16:23:04.735Z,53.40
2018-06-04T16:25:32.951Z,54.10
2018-06-04T16:28:01.121Z,53.70
2018-06-04T16:30:29.530Z,54.50
2018-06-04T16:32:57.725Z,55.10
2018-06-04T16:35:26.173Z,54.60
2018-06-04T16:37:54.365Z,55.20
2018-06-04T16:40:27.370Z,54.80
2018-06-04T16:42:55.686Z,55.10
2018-06-04T16:45:23.882Z,55.50
2018-06-04T16:47:52.430Z,55.60
2018-06-04T16:50:20.656Z,54.30
2018-06-04T16:52:48.794Z,54.60
2018-06-04T16:55:16.966Z,54.70
2018-06-04T16:57:45.116Z,56.10
2018-06-04T17:00:13.310Z,55.50
2018-06-04T17:02:41.542Z,55.40
2018-06-04T17:05:09.741Z,55.60
2018-06-04T17:07:37.903Z,54.90
2018-06-04T17:10:06.880Z,54.40
2018-06-04T17:12:35.053Z,55.00
2018-06-04T17:15:04.365Z,54.80
2018-06-04T17:17:32.594Z,55.30
2018-06-04T17:20:00.785Z,55.20
2018-06-04T17:22:28.979Z,55.80
2018-06-04T17:24:57.160Z,55.70
2018-06-04T17:27:25.317Z,55.80
2018-06-04T17:29:55.555Z,56.10
2018-06-04T17:32:23.809Z,55.70
2018-06-04T17:34:51.983Z,56.00
2018-06-04T17:37:20.188Z,55.60
2018-06-04T17:39:49.424Z,55.40
2018-06-04T17:42:17.656Z,55.70
2018-06-04T17:44:45.798Z,55.00
2018-06-04T17:47:13.966Z,55.80
2018-06-04T17:49:42.205Z,55.80
2018-06-04T17:52:10.362Z,55.60
2018-06-04T17:54:38.603Z,56.20
2018-06-04T17:57:06.790Z,56.30
2018-06-04T17:59:34.989Z,56.30
2018-06-04T18:02:03.149Z,56.30
2018-06-04T18:04:31.406Z,56.50
2018-06-04T18:06:59.596Z,55.40
2018-06-04T18:09:27.827Z,55.90
2018-06-04T18:11:56.026Z,56.20
2018-06-04T18:14:24.429Z,56.00
2018-06-04T18:16:56.002Z,56.40
2018-06-04T18:19:25.206Z,56.00
2018-06-04T18:21:53.405Z,55.60
2018-06-04T18:24:21.646Z,56.70
2018-06-04T18:26:49.886Z,56.80
2018-06-04T18:29:18.111Z,56.70
2018-06-04T18:31:46.422Z,56.70
2018-06-04T18:34:14.777Z,57.00
2018-06-04T18:36:44.098Z,57.30
2018-06-04T18:39:14.242Z,57.20
2018-06-04T18:41:42.437Z,56.60
2018-06-04T18:44:10.650Z,56.60
2018-06-04T18:46:38.830Z,57.10
2018-06-04T18:49:07.033Z,57.30
2018-06-04T18:51:35.222Z,57.50
2018-06-04T18:54:03.434Z,58.10
2018-06-04T18:56:31.663Z,58.20
2018-06-04T18:58:59.857Z,58.00
2018-06-04T19:01:28.064Z,58.20
2018-06-04T19:03:56.245Z,58.50
2018-06-04T19:06:24.881Z,59.10
2018-06-04T19:08:53.130Z,58.90
2018-06-04T19:11:21.217Z,59.40
2018-06-04T19:13:49.438Z,59.90
2018-06-04T19:16:17.624Z,59.70
2018-06-04T19:18:45.839Z,60.50
2018-06-04T19:21:15.587Z,60.30
2018-06-04T19:23:43.786Z,60.50
2018-06-04T19:26:13.099Z,60.60
2018-06-04T19:28:41.251Z,61.50
2018-06-04T19:31:09.473Z,60.50
2018-06-04T19:33:38.096Z,62.20
2018-06-04T19:36:06.393Z,62.70
2018-06-04T19:38:34.609Z,62.00
2018-06-04T19:41:02.850Z,61.70
2018-06-04T19:43:31.025Z,62.30
2018-06-04T19:45:59.226Z,62.10
2018-06-04T19:48:27.447Z,63.40
2018-06-04T19:50:55.738Z,63.00
2018-06-04T19:53:24.526Z,63.20
2018-06-04T19:55:52.753Z,63.50
2018-06-04T19:58:20.951Z,64.10
2018-06-04T20:00:49.599Z,65.20
2018-06-04T20:03:17.833Z,64.40
2018-06-04T20:05:46.047Z,64.80
2018-06-04T20:08:14.297Z,64.90
2018-06-04T20:10:43.334Z,65.10
2018-06-04T20:13:11.533Z,65.60
2018-06-04T20:15:39.854Z,65.90
2018-06-04T20:18:08.018Z,66.90
2018-06-04T20:20:36.313Z,65.80
2018-06-04T20:23:04.485Z,66.30
2018-06-04T20:25:32.682Z,65.60
2018-06-04T20:28:00.938Z,66.30
2018-06-04T20:30:29.131Z,66.20
2018-06-04T20:32:57.327Z,67.20
2018-06-04T20:35:25.506Z,66.20
2018-06-04T20:37:55.449Z,67.50
2018-06-04T20:40:23.694Z,66.50
2018-06-04T20:42:51.905Z,66.10
2018-06-04T20:45:20.082Z,66.80
2018-06-04T20:47:48.296Z,67.20
2018-06-04T20:50:16.487Z,66.60
2018-06-04T20:52:44.777Z,67.80
2018-06-04T20:55:12.981Z,67.50
2018-06-04T20:57:41.210Z,67.90
2018-06-04T21:00:09.430Z,67.40
2018-06-04T21:02:37.849Z,67.50
2018-06-04T21:05:06.075Z,67.40
2018-06-04T21:07:34.281Z,67.50
2018-06-04T21:10:02.464Z,67.90
2018-06-04T21:12:30.679Z,68.10
2018-06-04T21:14:58.945Z,68.50
2018-06-04T21:17:27.139Z,68.10
2018-06-04T21:19:55.330Z,67.50
2018-06-04T21:22:23.522Z,68.60
2018-06-04T21:24:52.721Z,68.60
2018-06-04T21:27:21.000Z,69.50
2018-06-04T21:29:49.182Z,70.60
2018-06-04T21:32:17.482Z,69.20
2018-06-04T21:34:45.686Z,70.10
2018-06-04T21:37:13.873Z,68.90
2018-06-04T21:39:42.110Z,69.90
2018-06-04T21:42:10.326Z,69.70
2018-06-04T21:44:38.526Z,70.10
2018-06-04T21:47:06.802Z,70.10
2018-06-04T21:49:35.075Z,71.00
2018-06-04T21:52:03.361Z,71.00
2018-06-04T21:54:31.706Z,70.70
2018-06-04T21:56:59.897Z,70.90
2018-06-04T21:59:28.177Z,72.00
2018-06-04T22:01:56.377Z,71.20
2018-06-04T22:04:30.531Z,72.30
2018-06-04T22:07:00.317Z,71.50
2018-06-04T22:09:28.598Z,72.60
2018-06-04T22:11:56.987Z,71.90
2018-06-04T22:14:25.974Z,72.30
2018-06-04T22:16:54.316Z,72.30
2018-06-04T22:19:22.377Z,73.10
2018-06-04T22:21:50.677Z,72.90
2018-06-04T22:24:19.217Z,72.80
2018-06-04T22:26:47.522Z,73.30
2018-06-04T22:29:15.725Z,72.70
2018-06-04T22:31:43.967Z,73.20
2018-06-04T22:34:13.802Z,73.10
2018-06-04T22:36:42.338Z,73.40
2018-06-04T22:39:10.574Z,73.20
2018-06-04T22:41:38.781Z,73.90
2018-06-04T22:44:07.306Z,73.60
2018-06-04T22:46:35.712Z,73.80
2018-06-04T22:49:07.532Z,73.70
2018-06-04T22:51:36.053Z,73.90
2018-06-04T22:54:04.333Z,73.90
2018-06-04T22:56:32.531Z,74.00
2018-06-04T22:59:00.753Z,74.50
2018-06-04T23:01:28.968Z,74.80
2018-06-04T23:03:57.157Z,74.50
2018-06-04T23:06:25.377Z,74.50
2018-06-04T23:08:53.550Z,74.60
2018-06-04T23:11:21.726Z,74.80
2018-06-04T23:13:49.930Z,75.00
2018-06-04T23:16:18.090Z,74.90
2018-06-04T23:18:46.326Z,74.70
2018-06-04T23:21:14.490Z,75.20
2018-06-04T23:23:42.672Z,75.20
2018-06-04T23:26:10.872Z,75.50
2018-06-04T23:28:39.029Z,75.20
2018-06-04T23:31:07.533Z,75.50
2018-06-04T23:33:35.806Z,75.60
2018-06-04T23:36:04.027Z,75.90
2018-06-04T23:38:32.189Z,75.00
2018-06-04T23:41:01.202Z,75.30
2018-06-04T23:43:29.341Z,75.50
2018-06-04T23:45:57.682Z,75.60
2018-06-04T23:48:25.856Z,75.80
2018-06-04T23:50:54.046Z,76.00
2018-06-04T23:53:22.234Z,76.20
2018-06-04T23:55:50.426Z,76.10
2018-06-04T23:58:18.597Z,75.70
